Terminal Aerodrome Forecast
Issued by NWS

Home | Current Version | Previous Version | Text Only | Print | Product List | Glossary On
Versions: 1 2 3 4 5 6 7 8 9 10 11 12 13 14 15 16 17 18 19 20 21
000
FTUS43 KDTX 241120
TAFYIP
TAF
KYIP 241120Z 2412/2512 07007KT P6SM SCT045 BKN100
     FM241700 10008KT 5SM -SHRA BR VCTS SCT028CB BKN040
     FM242200 07011KT 4SM -SHRA BR BKN015
     FM250300 05009KT 3SM -SHRA BR BKN008 OVC012
     FM251000 02007KT 3SM -SHRA BR OVC007=

USA.gov is the U.S. government's official web portal to all federal, state and local government web resources and services.